Time;durP1;ratioP1;P1;durP2;ratioP2;P2;SDS_P1;SDS_P2;PMS_P1;PMS_P2;Temp;Humidity;BMP_temperature;BMP_pressure;BME280_temperature;BME280_humidity;BME280_pressure;Samples;Min_cycle;Max_cycle;Signal;HPM_P1;HPM_P2
2021/12/05 00:22:33;;;;;;;18.03;4.67;;;4.30;99.90;;;;;;4807400;29;20030;-76
2021/12/05 00:25:01;;;;;;;20.42;6.47;;;4.20;99.90;;;;;;4803132;29;20045;-75
2021/12/05 00:27:35;;;;;;;13.23;4.88;;;4.20;99.90;;;;;;4789283;29;20058;-74
2021/12/05 00:30:27;;;;;;;15.30;5.38;;;4.10;99.90;;;;;;4809630;29;20051;-76
2021/12/05 00:33:10;;;;;;;10.10;3.70;;;4.10;99.90;;;;;;4791545;29;20050;-75
2021/12/05 00:44:31;;;;;;;7.82;3.33;;;4.00;99.90;;;;;;4784058;29;20043;-76
2021/12/05 01:16:46;;;;;;;15.63;4.23;;;3.70;99.90;;;;;;4776728;29;20049;-74
2021/12/05 01:19:16;;;;;;;13.95;3.55;;;3.70;99.90;;;;;;4762020;29;20038;-74
2021/12/05 01:21:47;;;;;;;9.95;2.90;;;3.70;99.90;;;;;;4744060;29;20460;-75
2021/12/05 01:29:40;;;;;;;15.27;3.50;;;3.80;99.90;;;;;;4773757;29;20510;-75
2021/12/05 01:32:38;;;;;;;18.27;4.15;;;3.80;99.90;;;;;;4799510;29;20042;-74
2021/12/05 01:43:37;;;;;;;16.48;3.78;;;3.80;99.90;;;;;;4790825;29;20047;-75
2021/12/05 01:54:18;;;;;;;18.93;3.43;;;3.80;99.90;;;;;;4789493;29;20058;-75
2021/12/05 02:43:03;;;;;;;14.52;2.53;;;3.70;99.90;;;;;;4786817;29;20390;-74
2021/12/05 02:45:33;;;;;;;14.27;3.15;;;3.70;99.90;;;;;;4786255;29;20046;-74
2021/12/05 02:47:59;;;;;;;17.17;3.88;;;3.70;99.90;;;;;;4789801;29;20050;-75
2021/12/05 02:50:29;;;;;;;17.87;3.40;;;3.60;99.90;;;;;;4787689;29;20395;-75
2021/12/05 02:53:02;;;;;;;13.98;3.40;;;3.70;99.90;;;;;;4785510;29;20066;-75
2021/12/05 02:55:42;;;;;;;19.13;4.72;;;3.60;99.90;;;;;;4766800;29;20514;-75
2021/12/05 03:03:21;;;;;;;14.70;3.60;;;3.80;99.90;;;;;;4786946;29;20051;-75
2021/12/05 03:05:57;;;;;;;23.83;4.43;;;3.80;99.90;;;;;;4776184;29;20043;-76
2021/12/05 03:08:24;;;;;;;14.00;3.63;;;3.80;99.90;;;;;;4789784;29;20054;-76
2021/12/05 03:10:52;;;;;;;19.37;4.10;;;3.90;99.90;;;;;;4802367;29;20054;-76
2021/12/05 03:13:18;;;;;;;18.02;3.47;;;3.90;99.90;;;;;;4774786;29;20043;-75
2021/12/05 03:15:46;;;;;;;21.48;4.88;;;3.90;99.90;;;;;;4800909;29;20043;-75
2021/12/05 03:18:13;;;;;;;22.92;4.05;;;3.90;99.90;;;;;;4807623;29;20046;-76
2021/12/05 03:20:40;;;;;;;16.47;2.77;;;4.00;99.90;;;;;;4773809;29;20091;-75
2021/12/05 03:23:07;;;;;;;15.37;3.93;;;3.90;99.90;;;;;;4805921;29;20051;-75
2021/12/05 03:25:35;;;;;;;13.37;3.40;;;4.00;99.90;;;;;;4800299;29;20482;-75
2021/12/05 03:28:04;;;;;;;15.07;3.17;;;3.90;99.90;;;;;;4775718;29;20057;-75
2021/12/05 03:30:33;;;;;;;17.08;3.55;;;3.90;99.90;;;;;;4770691;29;20411;-75
2021/12/05 03:33:00;;;;;;;15.45;3.90;;;3.90;99.90;;;;;;4787220;29;21420;-76
2021/12/05 03:35:29;;;;;;;15.07;3.57;;;3.90;99.90;;;;;;4786809;29;20050;-75
2021/12/05 03:37:58;;;;;;;13.95;4.00;;;3.90;99.90;;;;;;4769894;29;20038;-75
2021/12/05 03:40:29;;;;;;;17.65;3.30;;;3.90;99.90;;;;;;4772423;29;20058;-76
2021/12/05 03:42:58;;;;;;;15.70;3.40;;;3.90;99.90;;;;;;4785557;29;20389;-75
2021/12/05 03:45:29;;;;;;;20.90;4.80;;;3.90;99.90;;;;;;4787412;29;20038;-76
2021/12/05 03:47:57;;;;;;;19.05;4.40;;;4.00;99.90;;;;;;4789127;29;20049;-75
2021/12/05 03:50:25;;;;;;;16.23;2.83;;;3.90;99.90;;;;;;4768623;29;20070;-81
2021/12/05 03:52:52;;;;;;;17.40;3.20;;;4.00;99.90;;;;;;4781156;29;20042;-81
2021/12/05 03:55:21;;;;;;;12.93;3.47;;;4.00;99.90;;;;;;4794551;29;20050;-81
2021/12/05 03:57:48;;;;;;;19.17;3.85;;;4.00;99.90;;;;;;4781469;29;20695;-81
2021/12/05 04:00:24;;;;;;;17.17;3.42;;;4.00;99.90;;;;;;4795622;29;20038;-83
2021/12/05 04:02:55;;;;;;;10.30;2.50;;;4.00;99.90;;;;;;4782910;29;20042;-81
2021/12/05 04:05:27;;;;;;;15.73;3.03;;;4.10;99.90;;;;;;4782800;29;20039;-82
2021/12/05 04:07:54;;;;;;;14.90;3.03;;;4.00;99.90;;;;;;4796834;29;20054;-81
2021/12/05 04:10:22;;;;;;;14.35;3.40;;;4.10;99.90;;;;;;4783658;29;20066;-81
2021/12/05 04:12:50;;;;;;;16.23;3.35;;;4.10;99.90;;;;;;4768708;29;20514;-82
2021/12/05 04:15:20;;;;;;;17.38;3.65;;;4.10;99.90;;;;;;4797549;29;20513;-81
2021/12/05 04:17:51;;;;;;;15.68;3.00;;;4.00;99.90;;;;;;4798231;29;20038;-82
2021/12/05 04:20:20;;;;;;;11.55;3.80;;;4.10;99.90;;;;;;4799416;29;20042;-82
2021/12/05 04:22:49;;;;;;;17.52;3.60;;;4.10;99.90;;;;;;4780371;29;20042;-82
2021/12/05 04:25:17;;;;;;;16.55;4.60;;;4.10;99.90;;;;;;4798633;29;20144;-82
2021/12/05 04:27:46;;;;;;;12.13;3.60;;;4.10;99.90;;;;;;4779369;29;20406;-82
2021/12/05 04:30:14;;;;;;;15.50;4.82;;;4.10;99.90;;;;;;4785799;29;20042;-82
2021/12/05 04:32:41;;;;;;;11.97;3.53;;;4.10;99.90;;;;;;4783754;29;20038;-82
2021/12/05 04:35:09;;;;;;;13.57;4.13;;;4.20;99.90;;;;;;4797624;29;20035;-82
2021/12/05 04:37:36;;;;;;;14.70;4.45;;;4.20;99.90;;;;;;4794574;29;20038;-82
2021/12/05 04:40:06;;;;;;;11.20;4.03;;;4.20;99.90;;;;;;4791880;29;20039;-82
2021/12/05 04:42:33;;;;;;;21.63;5.17;;;4.10;99.90;;;;;;4778534;29;20043;-82
2021/12/05 04:45:02;;;;;;;11.93;4.23;;;4.20;99.90;;;;;;4794785;29;20039;-82
2021/12/05 04:47:30;;;;;;;16.90;4.47;;;4.20;99.90;;;;;;4780642;29;20039;-82
2021/12/05 04:49:57;;;;;;;13.05;4.00;;;4.20;99.90;;;;;;4765460;29;20051;-82
2021/12/05 04:52:23;;;;;;;18.13;5.55;;;4.20;99.90;;;;;;4814093;29;20530;-82
2021/12/05 04:54:50;;;;;;;15.75;5.55;;;4.20;99.90;;;;;;4780633;29;20038;-83
2021/12/05 04:57:19;;;;;;;11.75;4.70;;;4.20;99.90;;;;;;4770210;29;20039;-82
2021/12/05 04:59:50;;;;;;;18.07;5.53;;;4.20;99.90;;;;;;4773929;29;20047;-82
2021/12/05 05:02:18;;;;;;;22.83;5.82;;;4.20;99.90;;;;;;4771906;29;20048;-82
2021/12/05 05:04:49;;;;;;;15.77;5.40;;;4.30;99.90;;;;;;4783885;29;20046;-82
2021/12/05 05:07:25;;;;;;;18.73;6.67;;;4.30;99.90;;;;;;4790083;29;20436;-82
2021/12/05 05:10:10;;;;;;;12.37;4.50;;;4.20;99.90;;;;;;4789849;29;20041;-82
2021/12/05 05:12:37;;;;;;;11.00;4.97;;;4.30;99.90;;;;;;4785323;29;20054;-82
2021/12/05 05:15:04;;;;;;;17.75;6.20;;;4.30;99.90;;;;;;4787697;29;20042;-82
2021/12/05 05:17:31;;;;;;;17.33;5.67;;;4.30;99.90;;;;;;4760069;29;20161;-81
2021/12/05 05:20:03;;;;;;;15.10;4.85;;;4.30;99.90;;;;;;4771995;29;20058;-81
2021/12/05 05:22:41;;;;;;;12.80;4.65;;;4.30;99.90;;;;;;4783377;29;20054;-82
2021/12/05 05:25:41;;;;;;;16.37;5.60;;;4.30;99.90;;;;;;4796219;29;20051;-82
2021/12/05 05:46:53;;;;;;;11.60;5.53;;;4.40;99.90;;;;;;4795396;29;20424;-83
2021/12/05 05:51:49;;;;;;;10.50;4.73;;;4.40;99.90;;;;;;4780163;29;20058;-83
2021/12/05 05:54:18;;;;;;;12.93;7.00;;;4.50;99.90;;;;;;4814761;29;20057;-82
2021/12/05 05:56:45;;;;;;;10.93;5.93;;;4.40;99.90;;;;;;4794009;29;20403;-83
2021/12/05 05:59:42;;;;;;;12.43;6.30;;;4.40;99.90;;;;;;4769741;29;20043;-83
2021/12/05 06:04:37;;;;;;;17.17;6.30;;;4.50;99.90;;;;;;4801296;29;20394;-83
2021/12/05 06:07:03;;;;;;;13.63;6.72;;;4.50;99.90;;;;;;4787654;29;20503;-84
2021/12/05 06:09:30;;;;;;;18.20;5.90;;;4.50;99.90;;;;;;4799459;29;20382;-76
2021/12/05 06:11:56;;;;;;;11.77;5.90;;;4.50;99.90;;;;;;4764635;29;20055;-77
2021/12/05 06:14:24;;;;;;;12.05;5.75;;;4.50;99.90;;;;;;4769827;29;20376;-75
2021/12/05 06:16:51;;;;;;;8.90;5.88;;;4.50;99.90;;;;;;4775686;29;20046;-75
2021/12/05 06:19:17;;;;;;;11.07;5.78;;;4.60;99.90;;;;;;4785871;29;20506;-75
2021/12/05 06:21:44;;;;;;;9.18;5.70;;;4.60;99.90;;;;;;4793472;29;20042;-76
2021/12/05 06:24:10;;;;;;;13.75;5.75;;;4.60;99.90;;;;;;4807169;29;20062;-78
2021/12/05 06:26:37;;;;;;;8.30;4.93;;;4.60;99.90;;;;;;4782339;29;20049;-81
2021/12/05 06:31:54;;;;;;;9.88;4.68;;;4.60;99.90;;;;;;4801090;29;20055;-82
2021/12/05 06:37:28;;;;;;;9.50;5.28;;;4.70;99.90;;;;;;4798537;29;20050;-82
2021/12/05 06:43:03;;;;;;;10.88;4.97;;;4.60;99.90;;;;;;4781297;29;20047;-84
2021/12/05 06:48:35;;;;;;;13.02;5.88;;;4.60;99.90;;;;;;4747463;30;20096;-76
2021/12/05 06:51:03;;;;;;;9.98;4.55;;;4.60;99.90;;;;;;4741015;30;20040;-78
2021/12/05 06:53:30;;;;;;;11.98;6.13;;;4.60;99.90;;;;;;4763097;29;20054;-78
2021/12/05 06:55:56;;;;;;;10.70;5.30;;;4.60;99.90;;;;;;4778363;29;20050;-75
2021/12/05 06:58:23;;;;;;;11.10;5.70;;;4.60;99.90;;;;;;4801688;29;20038;-83
2021/12/05 07:00:49;;;;;;;9.35;4.72;;;4.60;99.90;;;;;;4781420;29;20046;-75
2021/12/05 07:03:16;;;;;;;8.88;4.88;;;4.60;99.90;;;;;;4794166;29;20046;-75
2021/12/05 07:08:13;;;;;;;6.13;3.88;;;4.70;99.90;;;;;;4808881;29;20554;-75
2021/12/05 07:10:52;;;;;;;9.20;4.65;;;4.60;99.90;;;;;;4790804;29;20034;-81
2021/12/05 07:18:40;;;;;;;11.77;5.95;;;4.70;99.90;;;;;;4784341;29;20579;-81
2021/12/05 07:26:19;;;;;;;11.30;5.63;;;4.70;99.90;;;;;;4809986;29;20046;-81
2021/12/05 07:42:40;;;;;;;8.55;4.75;;;4.70;99.90;;;;;;4773220;29;20054;-83
2021/12/05 07:45:14;;;;;;;7.93;5.35;;;4.70;99.90;;;;;;4815933;29;20376;-83
2021/12/05 07:47:46;;;;;;;9.23;5.63;;;4.70;99.90;;;;;;4782555;29;20042;-82
2021/12/05 07:50:14;;;;;;;9.52;5.97;;;4.70;99.90;;;;;;4814037;29;20043;-82
2021/12/05 07:52:45;;;;;;;9.18;6.40;;;4.70;99.90;;;;;;4782776;29;20046;-83
2021/12/05 07:55:20;;;;;;;11.25;6.85;;;4.70;99.90;;;;;;4800036;29;20042;-83
2021/12/05 08:00:37;;;;;;;8.02;6.00;;;4.70;99.90;;;;;;4781088;29;20035;-83
2021/12/05 08:16:49;;;;;;;5.85;5.35;;;4.70;99.90;;;;;;4808503;29;20495;-83
2021/12/05 08:19:18;;;;;;;7.45;5.65;;;4.70;99.90;;;;;;4781720;29;20046;-76
2021/12/05 08:21:47;;;;;;;6.57;5.25;;;4.70;99.90;;;;;;4770041;29;20057;-76
2021/12/05 08:24:14;;;;;;;7.72;5.40;;;4.70;99.90;;;;;;4791668;29;20050;-83
2021/12/05 08:26:42;;;;;;;6.50;4.97;;;4.70;99.90;;;;;;4810127;29;20051;-81
2021/12/05 08:29:13;;;;;;;8.10;6.30;;;4.70;99.90;;;;;;4782378;29;20050;-83
2021/12/05 09:39:55;;;;;;;8.20;7.10;;;5.00;99.90;;;;;;4789843;29;20650;-76
2021/12/05 10:10:21;;;;;;;12.27;7.97;;;5.20;99.90;;;;;;4795147;29;20517;-83
2021/12/05 10:13:29;;;;;;;9.68;6.95;;;5.20;99.90;;;;;;4727758;29;20063;-82
2021/12/05 10:16:22;;;;;;;9.02;6.95;;;5.20;99.90;;;;;;4797445;29;20053;-82
2021/12/05 10:27:20;;;;;;;10.45;8.05;;;5.30;99.90;;;;;;4795764;29;20039;-82
2021/12/05 10:38:22;;;;;;;15.25;11.27;;;5.40;99.90;;;;;;4778025;29;20054;-82
2021/12/05 10:41:47;;;;;;;14.75;8.90;;;5.40;99.90;;;;;;4808100;29;20031;-83
2021/12/05 10:43:46;;;;;;;10.52;7.95;;;5.40;99.90;;;;;;4785188;29;20051;-83
2021/12/05 10:46:19;;;;;;;12.18;9.00;;;5.40;99.90;;;;;;4809888;29;20041;-82
2021/12/05 10:48:50;;;;;;;11.80;8.60;;;5.40;99.90;;;;;;4811199;29;20402;-80
2021/12/05 10:51:24;;;;;;;8.27;7.38;;;5.50;99.90;;;;;;4790899;29;20031;-80
2021/12/05 10:53:56;;;;;;;8.63;7.13;;;5.50;99.90;;;;;;4794713;29;20039;-82
2021/12/05 10:56:35;;;;;;;11.05;8.40;;;5.50;99.90;;;;;;4802305;29;20039;-84
2021/12/05 10:59:24;;;;;;;11.65;8.80;;;5.40;99.90;;;;;;4815127;29;20053;-83
2021/12/05 11:01:56;;;;;;;9.48;6.97;;;5.40;99.90;;;;;;4784685;29;20403;-83
2021/12/05 11:04:35;;;;;;;9.80;7.43;;;5.40;99.90;;;;;;4815827;29;20054;-83
2021/12/05 11:07:05;;;;;;;11.48;8.25;;;5.50;99.90;;;;;;4790282;29;20046;-82
2021/12/05 11:09:36;;;;;;;10.63;8.82;;;5.50;99.90;;;;;;4813298;29;20399;-83
2021/12/05 11:12:10;;;;;;;9.98;6.68;;;5.50;99.90;;;;;;4799019;29;20149;-84
2021/12/05 11:14:40;;;;;;;9.60;7.32;;;5.60;99.90;;;;;;4813669;29;20051;-85
2021/12/05 11:17:10;;;;;;;10.23;8.20;;;5.60;99.90;;;;;;4782942;29;20387;-82
2021/12/05 11:20:09;;;;;;;8.88;7.85;;;5.60;99.90;;;;;;4784131;29;20442;-83
2021/12/05 11:22:41;;;;;;;10.32;8.70;;;5.70;99.90;;;;;;4763732;29;20061;-85
2021/12/05 11:25:13;;;;;;;10.73;8.63;;;5.70;99.90;;;;;;4818235;29;20037;-83
2021/12/05 11:27:44;;;;;;;13.60;9.38;;;5.70;99.90;;;;;;4795837;29;20088;-84
2021/12/05 11:30:21;;;;;;;9.88;8.32;;;5.80;99.90;;;;;;4797546;29;20042;-83
2021/12/05 11:32:54;;;;;;;9.57;8.18;;;5.90;99.90;;;;;;4795945;29;20054;-80
2021/12/05 11:35:30;;;;;;;9.50;8.50;;;5.90;99.90;;;;;;4810713;29;20035;-82
2021/12/05 11:38:07;;;;;;;11.20;7.65;;;5.90;99.90;;;;;;4814098;29;20050;-82
2021/12/05 11:41:06;;;;;;;12.43;9.38;;;6.00;99.90;;;;;;4793718;29;20035;-80
2021/12/05 11:43:45;;;;;;;8.90;7.40;;;6.00;99.90;;;;;;4772383;29;20415;-82
2021/12/05 11:46:17;;;;;;;11.45;8.27;;;6.00;99.90;;;;;;4796063;29;20030;-81
2021/12/05 11:49:06;;;;;;;10.38;8.27;;;6.00;99.90;;;;;;4795141;29;20039;-80
2021/12/05 11:51:41;;;;;;;9.75;8.75;;;6.10;99.90;;;;;;4808574;29;20030;-81
2021/12/05 11:54:41;;;;;;;10.23;8.98;;;6.10;99.90;;;;;;4785207;29;20046;-83
2021/12/05 11:57:15;;;;;;;9.20;7.70;;;6.10;99.90;;;;;;4797103;29;20050;-80
2021/12/05 12:00:01;;;;;;;9.55;8.25;;;6.10;99.90;;;;;;4784945;29;20050;-81
2021/12/05 12:02:43;;;;;;;8.45;7.55;;;6.10;99.90;;;;;;4812932;29;20553;-79
2021/12/05 12:05:17;;;;;;;9.95;7.88;;;6.00;99.90;;;;;;4814204;29;20510;-81
2021/12/05 12:08:05;;;;;;;8.95;7.47;;;6.00;99.90;;;;;;4794916;29;20054;-79
2021/12/05 12:10:57;;;;;;;10.63;8.55;;;6.00;99.90;;;;;;4810452;29;20513;-81
2021/12/05 12:13:29;;;;;;;8.45;7.65;;;6.00;99.90;;;;;;4783335;29;20035;-75
2021/12/05 12:15:59;;;;;;;7.63;6.80;;;6.00;99.90;;;;;;4805753;29;20034;-76
2021/12/05 12:18:32;;;;;;;7.03;6.30;;;6.00;99.90;;;;;;4778177;29;20297;-76
2021/12/05 12:21:19;;;;;;;10.07;7.80;;;6.00;99.90;;;;;;4775227;29;20039;-75
2021/12/05 12:23:48;;;;;;;9.45;7.78;;;6.00;99.90;;;;;;4777253;29;20042;-77
2021/12/05 12:26:15;;;;;;;8.45;7.55;;;5.90;99.90;;;;;;4808690;29;20039;-77
2021/12/05 12:28:42;;;;;;;7.78;6.97;;;5.90;99.90;;;;;;4788910;29;20042;-75
2021/12/05 12:31:17;;;;;;;9.45;7.60;;;5.90;99.90;;;;;;4792726;29;20046;-76
2021/12/05 12:33:51;;;;;;;9.52;7.35;;;5.90;99.90;;;;;;4785974;29;20474;-76
2021/12/05 12:36:42;;;;;;;9.32;8.20;;;5.90;99.90;;;;;;4799245;29;20050;-74
2021/12/05 12:39:21;;;;;;;9.25;7.85;;;6.00;99.90;;;;;;4805055;29;20047;-78
2021/12/05 12:42:15;;;;;;;10.82;8.13;;;6.10;99.90;;;;;;4806903;29;20035;-75
2021/12/05 12:45:07;;;;;;;9.60;8.10;;;6.10;99.90;;;;;;4791073;29;20659;-74
2021/12/05 12:47:38;;;;;;;9.73;8.35;;;6.10;99.90;;;;;;4796229;29;20047;-77
2021/12/05 12:50:34;;;;;;;9.05;7.72;;;6.10;99.90;;;;;;4791471;29;20600;-78
2021/12/05 12:53:10;;;;;;;8.30;7.38;;;6.00;99.90;;;;;;4766291;29;20055;-79
2021/12/05 12:55:40;;;;;;;9.60;7.65;;;6.10;99.90;;;;;;4776039;29;20050;-85
2021/12/05 12:58:10;;;;;;;11.55;8.23;;;6.10;99.90;;;;;;4762031;29;20047;-85
2021/12/05 13:00:44;;;;;;;9.85;7.72;;;6.10;99.90;;;;;;4780338;29;20510;-84
2021/12/05 13:04:04;;;;;;;8.90;6.93;;;6.10;99.90;;;;;;4786208;29;20384;-77
2021/12/05 13:11:55;;;;;;;8.77;6.97;;;6.10;99.90;;;;;;4811471;29;20044;-77
2021/12/05 13:14:22;;;;;;;8.13;6.60;;;6.00;99.90;;;;;;4786082;29;20039;-79
2021/12/05 13:16:50;;;;;;;6.82;6.13;;;6.00;99.90;;;;;;4769502;29;20043;-76
2021/12/05 13:19:19;;;;;;;5.90;5.30;;;6.00;99.90;;;;;;4765915;29;20057;-76
2021/12/05 13:21:49;;;;;;;6.03;5.30;;;6.00;99.90;;;;;;4792668;29;20030;-76
2021/12/05 13:24:41;;;;;;;7.68;5.57;;;6.00;99.90;;;;;;4802936;29;20038;-77
2021/12/05 13:27:25;;;;;;;5.60;5.10;;;6.00;99.90;;;;;;4799564;29;20034;-78
2021/12/05 13:29:55;;;;;;;4.43;3.97;;;6.00;99.90;;;;;;4784371;29;20031;-76
2021/12/05 13:32:25;;;;;;;5.28;4.78;;;6.00;99.90;;;;;;4786667;29;20058;-78
2021/12/05 13:34:59;;;;;;;4.47;4.00;;;5.90;99.90;;;;;;4775016;29;20046;-75
2021/12/05 13:37:47;;;;;;;4.72;4.32;;;6.00;99.90;;;;;;4797341;29;20038;-78
2021/12/05 13:40:14;;;;;;;4.07;3.67;;;5.90;99.90;;;;;;4768469;29;20041;-79
2021/12/05 13:42:48;;;;;;;5.25;4.75;;;5.90;99.90;;;;;;4793240;29;20031;-79
2021/12/05 13:45:16;;;;;;;4.78;4.20;;;5.90;99.90;;;;;;4779428;29;20045;-80
2021/12/05 13:47:52;;;;;;;4.70;4.05;;;6.00;99.90;;;;;;4787600;29;20049;-76
2021/12/05 13:50:19;;;;;;;4.80;3.92;;;6.00;99.90;;;;;;4773637;29;20043;-77
2021/12/05 13:53:02;;;;;;;5.38;4.88;;;6.00;99.90;;;;;;4782701;29;20057;-82
2021/12/05 13:55:31;;;;;;;;;;;6.00;99.90;;;;;;4794800;29;20053;-84
2021/12/05 13:58:28;;;;;;;6.82;4.75;;;6.00;99.90;;;;;;4806650;29;19917;-83
2021/12/05 14:01:06;;;;;;;5.90;5.22;;;5.90;99.90;;;;;;4810466;29;20031;-82
2021/12/05 14:03:57;;;;;;;5.95;4.47;;;5.90;99.90;;;;;;4791806;29;20475;-81
2021/12/05 14:06:53;;;;;;;5.22;4.63;;;5.90;99.90;;;;;;4790600;29;20615;-82
2021/12/05 14:09:46;;;;;;;5.93;5.32;;;5.90;99.90;;;;;;4794698;29;20042;-80
2021/12/05 14:12:20;;;;;;;5.28;4.55;;;5.90;99.90;;;;;;4798715;29;20042;-84
2021/12/05 14:14:53;;;;;;;7.35;5.80;;;5.80;99.90;;;;;;4810129;29;20472;-81
2021/12/05 14:17:25;;;;;;;5.68;4.88;;;5.80;99.90;;;;;;4810136;29;20046;-84
2021/12/05 14:19:59;;;;;;;4.93;4.43;;;5.80;99.90;;;;;;4786713;29;20046;-82
2021/12/05 14:22:31;;;;;;;4.35;3.90;;;5.80;99.90;;;;;;4790081;29;20399;-77
2021/12/05 14:25:02;;;;;;;5.40;4.85;;;5.80;99.90;;;;;;4788419;29;20031;-76
2021/12/05 14:27:33;;;;;;;5.77;5.03;;;5.80;99.90;;;;;;4791038;29;20041;-77
2021/12/05 14:30:01;;;;;;;6.97;6.28;;;5.80;99.90;;;;;;4783735;29;20291;-76
2021/12/05 14:32:31;;;;;;;7.78;5.95;;;5.80;99.90;;;;;;4776871;29;20038;-75
2021/12/05 14:35:08;;;;;;;6.63;5.93;;;5.80;99.90;;;;;;4791873;29;20030;-74
2021/12/05 14:37:36;;;;;;;6.63;5.85;;;5.80;99.90;;;;;;4784745;29;20039;-77
2021/12/05 14:40:06;;;;;;;8.57;7.30;;;5.80;99.90;;;;;;4799059;29;20364;-76
2021/12/05 14:42:34;;;;;;;14.77;9.32;;;5.80;99.90;;;;;;4792388;29;20047;-77
2021/12/05 14:45:06;;;;;;;9.07;8.05;;;5.70;99.90;;;;;;4802838;29;20050;-76
2021/12/05 14:47:35;;;;;;;8.98;7.78;;;5.70;99.90;;;;;;4790163;29;20043;-76
2021/12/05 14:50:07;;;;;;;9.27;7.68;;;5.70;99.90;;;;;;4774988;29;20464;-76
2021/12/05 14:52:36;;;;;;;7.75;6.95;;;5.70;99.90;;;;;;4787446;29;20047;-76
2021/12/05 14:55:11;;;;;;;7.43;6.70;;;5.70;99.90;;;;;;4788672;29;20038;-76
2021/12/05 14:57:47;;;;;;;9.70;7.82;;;5.70;99.90;;;;;;4789741;29;20045;-76
2021/12/05 15:00:38;;;;;;;10.32;7.55;;;5.60;99.90;;;;;;4774124;29;20043;-76
2021/12/05 15:03:16;;;;;;;9.23;7.57;;;5.60;99.90;;;;;;4787933;29;20570;-76
2021/12/05 15:05:50;;;;;;;9.68;7.70;;;5.60;99.90;;;;;;4787028;29;20066;-76
2021/12/05 15:08:23;;;;;;;13.32;8.43;;;5.60;99.90;;;;;;4801718;29;20046;-76
2021/12/05 15:10:56;;;;;;;10.43;7.75;;;5.60;99.90;;;;;;4786183;29;20035;-83
2021/12/05 15:13:23;;;;;;;12.50;7.30;;;5.50;99.90;;;;;;4790308;29;20043;-83
2021/12/05 15:15:49;;;;;;;8.43;6.25;;;5.50;99.90;;;;;;4787885;29;20027;-84
2021/12/05 15:18:19;;;;;;;8.30;6.80;;;5.50;99.90;;;;;;4806850;29;20045;-83
2021/12/05 15:20:47;;;;;;;8.30;7.43;;;5.40;99.90;;;;;;4790282;29;20038;-83
2021/12/05 15:23:14;;;;;;;9.38;6.88;;;5.50;99.90;;;;;;4791887;29;20139;-83
2021/12/05 15:25:43;;;;;;;12.15;7.18;;;5.50;99.90;;;;;;4768487;29;20043;-83
2021/12/05 15:28:11;;;;;;;6.82;5.50;;;5.40;99.90;;;;;;4806075;29;20053;-83
2021/12/05 15:30:47;;;;;;;12.85;6.75;;;5.40;99.90;;;;;;4807212;29;20038;-84
2021/12/05 15:33:16;;;;;;;10.65;7.45;;;5.40;99.90;;;;;;4807800;29;20034;-83
2021/12/05 15:35:44;;;;;;;9.32;7.40;;;5.40;99.90;;;;;;4788201;29;20075;-83
2021/12/05 15:38:30;;;;;;;9.15;6.68;;;5.40;99.90;;;;;;4807086;29;20065;-83
2021/12/05 15:41:05;;;;;;;10.02;6.68;;;5.40;99.90;;;;;;4806347;29;20031;-84
2021/12/05 15:43:34;;;;;;;9.98;6.43;;;5.40;99.90;;;;;;4808505;29;20636;-84
2021/12/05 15:46:03;;;;;;;9.13;7.07;;;5.40;99.90;;;;;;4807199;29;20052;-84
2021/12/05 15:48:34;;;;;;;7.18;5.63;;;5.40;99.90;;;;;;4783937;29;20050;-84
2021/12/05 15:51:03;;;;;;;11.02;7.18;;;5.30;99.90;;;;;;4764661;29;20045;-83
2021/12/05 15:53:32;;;;;;;9.73;7.32;;;5.40;99.90;;;;;;4795512;29;20058;-79
2021/12/05 15:56:03;;;;;;;13.48;8.60;;;5.40;99.90;;;;;;4799897;29;20039;-79
2021/12/05 15:58:38;;;;;;;8.88;7.13;;;5.30;99.90;;;;;;4811405;29;20486;-81
2021/12/05 16:01:12;;;;;;;10.00;7.38;;;5.30;99.90;;;;;;4793170;29;20467;-83
2021/12/05 16:03:52;;;;;;;11.07;7.68;;;5.30;99.90;;;;;;4795064;29;20046;-82
2021/12/05 16:06:21;;;;;;;10.55;8.43;;;5.30;99.90;;;;;;4811170;29;20035;-82
2021/12/05 16:08:49;;;;;;;12.88;7.93;;;5.30;99.90;;;;;;4783920;29;20042;-83
2021/12/05 16:11:19;;;;;;;14.55;8.25;;;5.30;99.90;;;;;;4811378;29;20042;-81
2021/12/05 16:13:48;;;;;;;15.52;9.07;;;5.20;99.90;;;;;;4814670;29;20046;-82
2021/12/05 16:16:14;;;;;;;10.95;7.78;;;5.20;99.90;;;;;;4793027;29;20057;-83
2021/12/05 16:18:44;;;;;;;9.98;7.25;;;5.20;99.90;;;;;;4765086;29;20035;-81
2021/12/05 16:21:20;;;;;;;12.95;8.93;;;5.30;99.90;;;;;;4795767;29;20034;-84
2021/12/05 16:23:49;;;;;;;11.60;8.13;;;5.20;99.90;;;;;;4782392;29;20053;-82
2021/12/05 16:26:20;;;;;;;14.10;9.23;;;5.20;99.90;;;;;;4768488;29;20038;-86
2021/12/05 16:28:53;;;;;;;14.43;10.05;;;5.20;99.90;;;;;;4806857;29;20051;-85
2021/12/05 16:31:46;;;;;;;10.60;8.32;;;5.20;99.90;;;;;;4782596;29;20489;-84
2021/12/05 16:34:21;;;;;;;14.80;9.52;;;5.20;99.90;;;;;;4775620;29;20047;-84
2021/12/05 16:37:08;;;;;;;11.00;9.05;;;5.20;99.90;;;;;;4813355;29;20748;-84
2021/12/05 16:39:38;;;;;;;11.98;9.98;;;5.20;99.90;;;;;;4794740;29;20415;-83
2021/12/05 16:42:21;;;;;;;18.75;11.55;;;5.10;99.90;;;;;;4813512;29;20386;-84
2021/12/05 16:44:51;;;;;;;14.45;8.48;;;5.10;99.90;;;;;;4793360;29;20058;-79
2021/12/05 16:47:25;;;;;;;12.70;8.63;;;5.10;99.90;;;;;;4796606;29;20051;-81
2021/12/05 16:49:54;;;;;;;15.95;11.43;;;5.10;99.90;;;;;;4814204;29;20035;-82
2021/12/05 16:52:32;;;;;;;15.70;10.48;;;5.10;99.90;;;;;;4805648;29;20070;-74
2021/12/05 16:55:21;;;;;;;15.35;9.98;;;5.00;99.90;;;;;;4787118;29;20063;-74
2021/12/05 16:57:57;;;;;;;12.68;10.18;;;5.00;99.90;;;;;;4802240;29;20380;-75
2021/12/05 17:00:27;;;;;;;14.50;10.20;;;5.00;99.90;;;;;;4770051;29;20047;-74
2021/12/05 17:02:58;;;;;;;11.55;9.18;;;5.00;99.90;;;;;;4799745;29;20043;-73
2021/12/05 17:05:27;;;;;;;12.88;8.63;;;5.00;99.90;;;;;;4781555;29;20034;-74
2021/12/05 17:08:16;;;;;;;11.57;8.77;;;5.00;99.90;;;;;;4800591;29;20038;-74
2021/12/05 17:10:50;;;;;;;13.18;9.90;;;5.00;99.90;;;;;;4788984;29;20046;-73
2021/12/05 17:13:34;;;;;;;12.77;10.57;;;5.00;99.90;;;;;;4772295;29;20046;-74
2021/12/05 17:16:24;;;;;;;15.57;11.73;;;5.00;99.90;;;;;;4785812;29;20507;-76
2021/12/05 17:19:13;;;;;;;16.25;12.68;;;5.00;99.90;;;;;;4801393;29;20376;-75
2021/12/05 17:21:47;;;;;;;20.40;12.45;;;5.00;99.90;;;;;;4803209;29;20329;-75
2021/12/05 17:24:28;;;;;;;22.40;12.50;;;5.00;99.90;;;;;;4804359;29;20050;-74
2021/12/05 17:27:00;;;;;;;21.42;12.57;;;5.00;99.90;;;;;;4808591;29;20551;-75
2021/12/05 17:29:43;;;;;;;16.58;11.77;;;5.00;99.90;;;;;;4787175;29;20038;-75
2021/12/05 17:32:09;;;;;;;;;;;5.00;99.90;;;;;;4789000;29;20043;-73
2021/12/05 17:34:41;;;;;;;17.90;12.65;;;5.00;99.90;;;;;;4773176;29;20409;-76
2021/12/05 17:37:16;;;;;;;17.17;12.55;;;5.00;99.90;;;;;;4803309;29;20502;-74
2021/12/05 17:39:44;;;;;;;18.63;13.15;;;5.00;99.90;;;;;;4806967;29;20050;-76
2021/12/05 17:42:18;;;;;;;17.25;12.18;;;5.00;99.90;;;;;;4789276;29;20053;-75
2021/12/05 17:44:46;;;;;;;20.35;14.38;;;5.00;99.90;;;;;;4807199;29;20049;-75
2021/12/05 17:47:14;;;;;;;20.48;14.32;;;5.00;99.90;;;;;;4788143;29;20042;-76
2021/12/05 17:49:44;;;;;;;21.60;12.63;;;5.00;99.90;;;;;;4775463;29;20077;-75
2021/12/05 17:52:13;;;;;;;23.20;16.73;;;5.00;99.90;;;;;;4778519;29;20542;-75
2021/12/05 17:57:33;;;;;;;25.45;18.17;;;4.90;99.90;;;;;;4805339;29;20059;-84
2021/12/05 18:00:12;;;;;;;19.92;13.50;;;4.90;99.90;;;;;;4795813;29;20031;-83
2021/12/05 18:05:19;;;;;;;27.55;17.67;;;4.90;99.90;;;;;;4785037;29;20924;-85
2021/12/05 18:07:47;;;;;;;26.63;16.55;;;4.90;99.90;;;;;;4799867;29;20046;-83
2021/12/05 18:10:15;;;;;;;22.13;16.25;;;4.90;99.90;;;;;;4813245;29;20027;-82
2021/12/05 18:12:43;;;;;;;21.45;15.55;;;4.90;99.90;;;;;;4784452;29;20434;-80
2021/12/05 18:15:21;;;;;;;21.40;16.17;;;4.90;99.90;;;;;;4816143;29;20065;-83
2021/12/05 18:17:47;;;;;;;28.08;17.73;;;4.90;99.90;;;;;;4797919;29;20034;-82
2021/12/05 18:20:19;;;;;;;28.10;18.40;;;4.90;99.90;;;;;;4780667;29;20613;-83
2021/12/05 18:22:46;;;;;;;27.67;17.70;;;4.90;99.90;;;;;;4803609;29;20039;-80
2021/12/05 18:25:13;;;;;;;24.83;17.52;;;4.90;99.90;;;;;;4815563;29;20034;-81
2021/12/05 18:27:41;;;;;;;25.75;16.95;;;4.90;99.90;;;;;;4799303;29;20038;-82
2021/12/05 18:30:10;;;;;;;24.35;17.20;;;4.90;99.90;;;;;;4782898;29;20050;-80
2021/12/05 18:32:37;;;;;;;20.02;14.63;;;4.90;99.90;;;;;;4796018;29;20043;-79
2021/12/05 18:35:05;;;;;;;23.17;16.15;;;4.90;99.90;;;;;;4816593;29;20034;-81
2021/12/05 18:37:31;;;;;;;25.73;18.02;;;4.90;99.90;;;;;;4817886;29;20047;-81
2021/12/05 18:39:58;;;;;;;28.05;17.45;;;4.90;99.90;;;;;;4769030;29;20492;-82
2021/12/05 18:42:24;;;;;;;25.08;17.52;;;4.90;99.90;;;;;;4787282;29;20046;-82
2021/12/05 18:44:58;;;;;;;24.20;17.13;;;4.90;99.90;;;;;;4809600;29;20411;-81
2021/12/05 18:47:25;;;;;;;25.55;16.08;;;4.90;99.90;;;;;;4773538;29;20049;-82
2021/12/05 18:49:53;;;;;;;25.88;18.55;;;4.90;99.90;;;;;;4804566;29;20047;-80
2021/12/05 18:52:20;;;;;;;23.20;16.38;;;4.80;99.90;;;;;;4811487;29;20054;-79
2021/12/05 18:54:46;;;;;;;23.88;15.77;;;4.80;99.90;;;;;;4810515;29;20122;-80
2021/12/05 18:57:17;;;;;;;22.73;15.48;;;4.80;99.90;;;;;;4817972;29;20039;-80